createdAt,value
2022-09-26T00:00:16.536Z,358
2022-09-26T00:01:16.431Z,355
2022-09-26T00:02:16.034Z,376
2022-09-26T00:03:16.524Z,382
2022-09-26T00:04:15.446Z,374
2022-09-26T00:05:15.848Z,371
2022-09-26T00:06:15.982Z,366
2022-09-26T00:08:15.313Z,364
2022-09-26T00:09:15.807Z,357
2022-09-26T00:10:16.452Z,364
2022-09-26T00:11:15.946Z,358
2022-09-26T00:12:16.490Z,364
2022-09-26T00:13:16.348Z,361
2022-09-26T00:14:14.815Z,358
2022-09-26T00:15:16.491Z,356
2022-09-26T00:16:16.241Z,354
2022-09-26T00:17:15.709Z,365
2022-09-26T00:18:17.106Z,345
2022-09-26T00:19:15.405Z,355
2022-09-26T00:20:15.441Z,350
2022-09-26T00:21:16.180Z,352
2022-09-26T00:22:16.170Z,357
2022-09-26T00:23:16.958Z,363
2022-09-26T00:24:15.499Z,367
2022-09-26T00:25:15.774Z,378
2022-09-26T00:26:15.935Z,376
2022-09-26T00:27:16.598Z,372
2022-09-26T00:28:16.033Z,368
2022-09-26T00:29:15.822Z,365
2022-09-26T00:30:16.045Z,360
2022-09-26T00:31:15.617Z,362
2022-09-26T00:32:16.315Z,354
2022-09-26T00:33:15.886Z,352
2022-09-26T00:34:15.778Z,346
2022-09-26T00:35:16.716Z,352
2022-09-26T00:36:16.034Z,348
2022-09-26T00:37:16.629Z,356
2022-09-26T00:38:16.374Z,360
2022-09-26T00:39:15.454Z,357
2022-09-26T00:40:16.127Z,350
2022-09-26T00:41:16.035Z,358
2022-09-26T00:42:16.321Z,362
2022-09-26T00:43:21.108Z,358
2022-09-26T00:44:14.517Z,353
2022-09-26T00:45:21.270Z,355
2022-09-26T00:46:16.552Z,357
2022-09-26T00:47:16.640Z,352
2022-09-26T00:48:16.515Z,366
2022-09-26T00:49:15.223Z,367
2022-09-26T00:50:16.751Z,370
2022-09-26T00:51:16.473Z,359
2022-09-26T00:52:15.841Z,367
2022-09-26T00:53:16.461Z,370
2022-09-26T00:54:15.173Z,365
2022-09-26T00:55:15.885Z,362
2022-09-26T00:56:16.788Z,353
2022-09-26T00:57:16.520Z,381
2022-09-26T00:58:15.600Z,342
2022-09-26T00:59:15.916Z,350
2022-09-26T01:00:16.035Z,364
2022-09-26T01:01:15.856Z,355
2022-09-26T01:02:16.698Z,356
2022-09-26T01:03:16.465Z,353
2022-09-26T01:04:14.577Z,363
2022-09-26T01:05:16.483Z,366
2022-09-26T01:06:16.402Z,364
2022-09-26T01:09:15.510Z,361
2022-09-26T01:10:15.616Z,359
2022-09-26T01:11:20.956Z,370
2022-09-26T01:12:16.389Z,372
2022-09-26T01:13:15.637Z,361
2022-09-26T01:14:15.509Z,350
2022-09-26T01:16:15.735Z,361
2022-09-26T01:17:16.542Z,362
2022-09-26T01:18:15.860Z,358
2022-09-26T01:19:14.833Z,365
2022-09-26T01:20:16.544Z,372
2022-09-26T01:22:15.725Z,366
2022-09-26T01:23:16.296Z,372
2022-09-26T01:24:14.912Z,365
2022-09-26T01:25:16.830Z,362
2022-09-26T01:26:16.476Z,360
2022-09-26T01:27:15.815Z,368
2022-09-26T01:28:16.900Z,366
2022-09-26T01:29:15.535Z,360
2022-09-26T01:30:15.748Z,359
2022-09-26T01:31:16.638Z,355
2022-09-26T01:32:15.953Z,351
2022-09-26T01:34:15.543Z,350
2022-09-26T01:35:15.942Z,355
2022-09-26T01:36:15.699Z,356
2022-09-26T01:37:16.562Z,351
2022-09-26T01:38:16.013Z,366
2022-09-26T01:39:15.007Z,346
2022-09-26T01:40:16.519Z,355
2022-09-26T01:41:15.704Z,366
2022-09-26T01:42:16.400Z,356
2022-09-26T01:43:16.133Z,360
2022-09-26T01:44:14.870Z,351
2022-09-26T01:45:16.623Z,347
2022-09-26T01:46:15.695Z,365
2022-09-26T01:47:15.907Z,367
2022-09-26T01:48:15.759Z,361
2022-09-26T01:49:15.244Z,367
2022-09-26T01:50:15.669Z,358
2022-09-26T01:51:15.951Z,360
2022-09-26T01:52:15.740Z,363
2022-09-26T01:53:16.184Z,359
2022-09-26T01:54:15.187Z,360
2022-09-26T01:55:15.720Z,363
2022-09-26T01:56:16.201Z,361
2022-09-26T01:57:16.176Z,356
2022-09-26T01:58:15.173Z,349
2022-09-26T01:59:15.544Z,379
2022-09-26T02:00:15.580Z,377
2022-09-26T02:01:16.661Z,367
2022-09-26T02:02:16.005Z,364
2022-09-26T02:03:15.688Z,368
2022-09-26T02:04:15.666Z,359
2022-09-26T02:05:16.242Z,357
2022-09-26T02:06:15.691Z,353
2022-09-26T02:07:16.295Z,360
2022-09-26T02:08:16.345Z,357
2022-09-26T02:09:15.213Z,355
2022-09-26T02:10:16.308Z,353
2022-09-26T02:11:16.193Z,364
2022-09-26T02:12:15.608Z,360
2022-09-26T02:13:16.307Z,354
2022-09-26T02:14:14.866Z,352
2022-09-26T02:15:16.622Z,356
2022-09-26T02:16:16.107Z,360
2022-09-26T02:17:16.221Z,359
2022-09-26T02:18:15.688Z,356
2022-09-26T02:19:16.374Z,364
2022-09-26T02:20:15.693Z,365
2022-09-26T02:21:16.509Z,364
2022-09-26T02:22:15.873Z,356
2022-09-26T02:23:16.068Z,355
2022-09-26T02:24:15.704Z,361
2022-09-26T02:25:16.063Z,360
2022-09-26T02:26:16.593Z,356
2022-09-26T02:27:16.375Z,368
2022-09-26T02:28:16.346Z,362
2022-09-26T02:29:15.947Z,361
2022-09-26T02:30:16.318Z,365
2022-09-26T02:31:15.881Z,347
2022-09-26T02:34:14.759Z,344
2022-09-26T02:35:16.723Z,340
2022-09-26T02:36:16.279Z,344
2022-09-26T02:37:16.073Z,349
2022-09-26T02:38:16.460Z,355
2022-09-26T02:39:15.608Z,352
2022-09-26T02:40:15.615Z,327
2022-09-26T02:41:16.592Z,340
2022-09-26T02:42:16.303Z,343
2022-09-26T02:43:15.934Z,349
2022-09-26T02:44:15.579Z,356
2022-09-26T02:45:15.996Z,362
2022-09-26T02:46:16.046Z,360
2022-09-26T02:47:16.827Z,372
2022-09-26T02:48:16.282Z,358
2022-09-26T02:49:16.009Z,354
2022-09-26T02:50:16.466Z,353
2022-09-26T02:51:15.934Z,351
2022-09-26T02:52:15.649Z,367
2022-09-26T02:53:16.010Z,360
2022-09-26T02:54:15.008Z,359
2022-09-26T02:55:16.545Z,363
2022-09-26T02:56:15.507Z,354
2022-09-26T02:57:15.740Z,352
2022-09-26T02:59:15.471Z,350
2022-09-26T03:00:15.660Z,382
2022-09-26T03:01:16.505Z,347
2022-09-26T03:02:16.016Z,350
2022-09-26T03:03:15.613Z,360
2022-09-26T03:04:16.272Z,358
2022-09-26T03:05:16.144Z,362
2022-09-26T03:06:16.566Z,363
2022-09-26T03:07:16.279Z,362
2022-09-26T03:08:15.712Z,354
2022-09-26T03:10:16.014Z,353
2022-09-26T03:11:15.976Z,361
2022-09-26T03:12:16.877Z,358
2022-09-26T03:13:15.997Z,346
2022-09-26T03:14:15.847Z,352
2022-09-26T03:15:16.568Z,356
2022-09-26T03:16:16.270Z,359
2022-09-26T03:17:16.163Z,351
2022-09-26T03:19:15.663Z,358
2022-09-26T03:20:16.035Z,359
2022-09-26T03:21:16.805Z,358
2022-09-26T03:22:16.142Z,354
2022-09-26T03:24:15.742Z,347
2022-09-26T03:26:15.614Z,342
2022-09-26T03:27:16.275Z,341
2022-09-26T03:28:16.271Z,340
2022-09-26T03:29:15.222Z,344
2022-09-26T03:30:16.677Z,338
2022-09-26T03:31:16.472Z,349
2022-09-26T03:32:15.795Z,363
2022-09-26T03:33:16.117Z,361
2022-09-26T03:34:15.185Z,359
2022-09-26T03:35:16.496Z,348
2022-09-26T03:36:16.250Z,357
2022-09-26T03:37:15.722Z,359
2022-09-26T03:38:19.174Z,355
2022-09-26T03:40:15.594Z,349
2022-09-26T03:41:16.111Z,356
2022-09-26T03:42:16.052Z,359
2022-09-26T03:43:15.550Z,362
2022-09-26T03:44:16.310Z,352
2022-09-26T03:45:16.218Z,348
2022-09-26T03:46:15.797Z,352
2022-09-26T03:47:16.200Z,357
2022-09-26T03:48:15.674Z,353
2022-09-26T03:49:15.836Z,345
2022-09-26T03:50:16.008Z,353
2022-09-26T03:51:15.960Z,355
2022-09-26T03:52:16.325Z,350
2022-09-26T03:53:16.094Z,354
2022-09-26T03:54:15.055Z,349
2022-09-26T03:55:16.520Z,361
2022-09-26T03:56:16.275Z,363
2022-09-26T03:57:15.875Z,362
2022-09-26T03:58:16.320Z,352
2022-09-26T03:59:15.555Z,337
2022-09-26T04:00:15.946Z,352
2022-09-26T04:01:16.694Z,343
2022-09-26T04:02:15.254Z,341
2022-09-26T04:03:15.698Z,346
2022-09-26T04:04:15.260Z,351
2022-09-26T04:05:16.022Z,360
2022-09-26T04:07:16.392Z,351
2022-09-26T04:09:20.472Z,360
2022-09-26T04:10:16.340Z,359
2022-09-26T04:11:15.982Z,349
2022-09-26T04:12:16.443Z,356
2022-09-26T04:13:50.758Z,363
2022-09-26T04:14:14.868Z,354
2022-09-26T04:15:16.584Z,348
2022-09-26T04:16:16.107Z,354
2022-09-26T04:17:15.608Z,348
2022-09-26T04:18:16.409Z,359
2022-09-26T04:19:15.337Z,356
2022-09-26T04:20:15.193Z,365
2022-09-26T04:21:16.056Z,362
2022-09-26T04:22:16.067Z,349
2022-09-26T04:23:16.225Z,352
2022-09-26T04:25:16.066Z,364
2022-09-26T04:26:22.480Z,357
2022-09-26T04:27:16.210Z,351
2022-09-26T04:28:15.051Z,352
2022-09-26T04:29:15.910Z,354
2022-09-26T04:30:15.887Z,362
2022-09-26T04:31:17.390Z,369
2022-09-26T04:32:16.584Z,370
2022-09-26T04:33:15.801Z,357
2022-09-26T04:35:16.413Z,362
2022-09-26T04:36:15.498Z,371
2022-09-26T04:37:16.813Z,370
2022-09-26T04:38:16.425Z,360
2022-09-26T04:40:16.611Z,353
2022-09-26T04:43:16.547Z,363
2022-09-26T04:44:15.330Z,357
2022-09-26T04:45:15.759Z,356
2022-09-26T04:46:20.615Z,363
2022-09-26T04:47:16.102Z,360
2022-09-26T04:48:15.186Z,369
2022-09-26T04:49:15.910Z,357
2022-09-26T04:50:16.004Z,355
2022-09-26T04:51:15.495Z,360
2022-09-26T04:52:16.386Z,356
2022-09-26T04:53:16.288Z,360
2022-09-26T04:54:14.395Z,358
2022-09-26T04:55:16.303Z,368
2022-09-26T04:56:16.115Z,359
2022-09-26T04:57:19.485Z,348
2022-09-26T04:58:16.666Z,352
2022-09-26T05:01:16.045Z,342
2022-09-26T05:02:15.987Z,348
2022-09-26T05:04:15.405Z,347
2022-09-26T05:05:15.842Z,354
2022-09-26T05:06:16.368Z,357
2022-09-26T05:07:16.160Z,359
2022-09-26T05:08:15.789Z,353
2022-09-26T05:10:15.196Z,359
2022-09-26T05:11:15.756Z,361
2022-09-26T05:12:16.070Z,355
2022-09-26T05:13:16.061Z,359
2022-09-26T05:14:15.493Z,351
2022-09-26T05:15:16.345Z,346
2022-09-26T05:17:16.373Z,359
2022-09-26T05:18:15.581Z,358
2022-09-26T05:19:15.346Z,350
2022-09-26T05:21:15.899Z,344
2022-09-26T05:22:15.338Z,343
2022-09-26T05:23:16.562Z,351
2022-09-26T05:24:15.362Z,350
2022-09-26T05:25:15.735Z,355
2022-09-26T05:26:16.561Z,357
2022-09-26T05:27:16.457Z,351
2022-09-26T05:28:15.781Z,344
2022-09-26T05:29:16.433Z,355
2022-09-26T05:30:16.396Z,361
2022-09-26T05:31:16.015Z,359
2022-09-26T05:32:16.273Z,370
2022-09-26T05:33:15.878Z,357
2022-09-26T05:34:23.087Z,356
2022-09-26T05:35:16.157Z,358
2022-09-26T05:36:16.030Z,361
2022-09-26T05:37:16.077Z,370
2022-09-26T05:38:15.889Z,364
2022-09-26T05:39:16.657Z,354
2022-09-26T05:41:15.798Z,350
2022-09-26T05:42:16.539Z,356
2022-09-26T05:44:15.551Z,379
2022-09-26T05:45:16.363Z,359
2022-09-26T05:46:16.115Z,357
2022-09-26T05:47:16.323Z,359
2022-09-26T05:48:16.488Z,351
2022-09-26T05:49:15.596Z,346
2022-09-26T05:50:15.594Z,348
2022-09-26T05:51:16.346Z,347
2022-09-26T05:52:15.994Z,351
2022-09-26T05:53:15.551Z,349
2022-09-26T05:54:16.047Z,354
2022-09-26T05:55:15.829Z,353
2022-09-26T05:56:20.618Z,348
2022-09-26T05:57:16.213Z,357
2022-09-26T05:58:15.853Z,351
2022-09-26T05:59:15.765Z,354
2022-09-26T06:00:15.804Z,366
2022-09-26T06:01:16.201Z,358
2022-09-26T06:02:20.583Z,352
2022-09-26T06:03:16.397Z,343
2022-09-26T06:04:14.759Z,357
2022-09-26T06:05:16.433Z,372
2022-09-26T06:06:15.681Z,357
2022-09-26T06:07:15.785Z,361
2022-09-26T06:08:16.313Z,358
2022-09-26T06:09:15.417Z,352
2022-09-26T06:10:16.760Z,353
2022-09-26T06:11:15.973Z,357
2022-09-26T06:12:15.862Z,354
2022-09-26T06:13:16.489Z,352
2022-09-26T06:18:32.747Z,359
2022-09-26T06:18:41.073Z,364
2022-09-26T06:18:47.210Z,358
2022-09-26T06:19:17.494Z,360
2022-09-26T06:20:15.664Z,359
2022-09-26T06:21:16.633Z,351
2022-09-26T06:22:16.346Z,344
2022-09-26T06:23:15.878Z,350
2022-09-26T06:24:15.445Z,355
2022-09-26T06:25:16.353Z,339
2022-09-26T06:26:15.992Z,346
2022-09-26T06:27:16.169Z,341
2022-09-26T06:28:15.822Z,339
2022-09-26T06:29:14.761Z,345
2022-09-26T06:30:15.957Z,363
2022-09-26T06:31:16.188Z,361
2022-09-26T06:32:15.837Z,348
2022-09-26T06:33:16.709Z,359
2022-09-26T06:34:15.235Z,350
2022-09-26T06:35:15.588Z,349
2022-09-26T06:36:16.279Z,357
2022-09-26T06:37:15.988Z,350
2022-09-26T06:38:15.345Z,356
2022-09-26T06:39:15.954Z,350
2022-09-26T06:40:16.187Z,345
2022-09-26T06:41:16.007Z,358
2022-09-26T06:42:16.405Z,363
2022-09-26T06:43:15.526Z,360
2022-09-26T06:44:14.546Z,335
2022-09-26T06:45:15.994Z,356
2022-09-26T06:46:15.808Z,348
2022-09-26T06:47:15.902Z,347
2022-09-26T06:48:18.961Z,344
2022-09-26T06:49:15.485Z,347
2022-09-26T06:50:16.469Z,358
2022-09-26T06:51:16.244Z,360
2022-09-26T06:53:18.966Z,354
2022-09-26T06:54:15.610Z,355
2022-09-26T06:55:15.707Z,352
2022-09-26T06:56:16.157Z,340
2022-09-26T06:57:20.191Z,344
2022-09-26T06:58:15.660Z,343
2022-09-26T06:59:15.734Z,342
2022-09-26T07:00:15.747Z,352
2022-09-26T07:01:15.771Z,347
2022-09-26T07:02:15.809Z,346
2022-09-26T07:03:16.176Z,350
2022-09-26T07:04:14.548Z,352
2022-09-26T07:05:16.161Z,332
2022-09-26T07:06:16.094Z,339
2022-09-26T07:07:15.818Z,342
2022-09-26T07:08:16.436Z,337
2022-09-26T07:09:16.880Z,344
2022-09-26T07:10:15.974Z,347
2022-09-26T07:11:50.956Z,350
2022-09-26T07:12:20.458Z,356
2022-09-26T07:13:15.975Z,347
2022-09-26T07:14:15.216Z,346
2022-09-26T07:15:15.898Z,355
2022-09-26T07:16:16.343Z,357
2022-09-26T07:17:16.165Z,355
2022-09-26T07:18:15.797Z,352
2022-09-26T07:19:16.188Z,340
2022-09-26T07:20:15.782Z,328
2022-09-26T07:21:15.820Z,331
2022-09-26T07:23:15.953Z,330
2022-09-26T07:24:14.813Z,369
2022-09-26T07:25:16.270Z,339
2022-09-26T07:26:15.839Z,340
2022-09-26T07:27:15.218Z,334
2022-09-26T07:28:16.492Z,351
2022-09-26T07:29:15.284Z,349
2022-09-26T07:30:16.718Z,348
2022-09-26T07:32:15.846Z,344
2022-09-26T07:33:16.201Z,347
2022-09-26T07:34:20.775Z,342
2022-09-26T07:36:16.412Z,341
2022-09-26T07:37:16.435Z,340
2022-09-26T07:38:15.721Z,334
2022-09-26T07:39:17.355Z,337
2022-09-26T07:40:15.901Z,342
2022-09-26T07:41:15.758Z,346
2022-09-26T07:42:15.756Z,333
2022-09-26T07:43:44.994Z,365
2022-09-26T07:45:21.961Z,322
2022-09-26T07:45:35.487Z,318
2022-09-26T07:46:15.996Z,331
2022-09-26T07:47:15.769Z,336
2022-09-26T07:48:16.665Z,346
2022-09-26T07:49:15.575Z,344
2022-09-26T07:50:15.855Z,335
2022-09-26T07:51:16.493Z,355
2022-09-26T07:52:16.122Z,345
2022-09-26T07:53:15.814Z,341
2022-09-26T07:54:16.665Z,331
2022-09-26T07:55:15.889Z,334
2022-09-26T07:56:15.639Z,342
2022-09-26T07:57:16.177Z,336
2022-09-26T07:58:16.177Z,335
2022-09-26T07:59:15.984Z,343
2022-09-26T08:03:16.368Z,340
2022-09-26T08:04:14.911Z,337
2022-09-26T08:05:16.558Z,338
2022-09-26T08:07:15.875Z,335
2022-09-26T08:08:16.856Z,336
2022-09-26T08:09:16.801Z,331
2022-09-26T08:10:15.830Z,337
2022-09-26T08:12:15.990Z,333
2022-09-26T08:13:16.313Z,340
2022-09-26T08:15:15.696Z,335
2022-09-26T08:16:16.414Z,330
2022-09-26T08:17:19.309Z,337
2022-09-26T08:18:15.988Z,335
2022-09-26T08:19:16.716Z,349
2022-09-26T08:20:16.110Z,356
2022-09-26T08:21:16.225Z,355
2022-09-26T08:22:16.333Z,349
2022-09-26T08:23:16.410Z,336
2022-09-26T08:24:15.198Z,339
2022-09-26T08:25:16.267Z,340
2022-09-26T08:26:16.241Z,343
2022-09-26T08:27:15.450Z,349
2022-09-26T08:28:16.174Z,351
2022-09-26T08:29:15.760Z,345
2022-09-26T08:30:15.745Z,342
2022-09-26T08:31:16.462Z,333
2022-09-26T08:32:16.073Z,336
2022-09-26T08:33:15.914Z,344
2022-09-26T08:34:15.853Z,347
2022-09-26T08:35:16.095Z,351
2022-09-26T08:36:15.509Z,353
2022-09-26T08:37:16.235Z,341
2022-09-26T08:38:15.941Z,346
2022-09-26T08:39:16.331Z,351
2022-09-26T08:41:16.174Z,352
2022-09-26T08:42:16.661Z,357
2022-09-26T08:43:15.981Z,351
2022-09-26T08:44:15.760Z,337
2022-09-26T08:45:16.269Z,340
2022-09-26T08:46:16.307Z,346
2022-09-26T08:47:15.707Z,345
2022-09-26T08:48:16.111Z,338
2022-09-26T08:49:15.777Z,337
2022-09-26T08:50:16.450Z,338
2022-09-26T08:51:15.974Z,334
2022-09-26T08:52:15.557Z,338
2022-09-26T08:53:16.015Z,347
2022-09-26T08:54:15.123Z,344
2022-09-26T08:55:16.480Z,345
2022-09-26T08:56:15.509Z,342
2022-09-26T08:57:16.412Z,346
2022-09-26T08:58:16.060Z,339
2022-09-26T08:59:14.913Z,338
2022-09-26T09:00:16.356Z,341
2022-09-26T09:01:16.447Z,337
2022-09-26T09:02:15.713Z,343
2022-09-26T09:03:16.939Z,351
2022-09-26T09:04:15.168Z,343
2022-09-26T09:05:16.009Z,332
2022-09-26T09:06:16.182Z,337
2022-09-26T09:07:16.257Z,339
2022-09-26T09:08:15.284Z,334
2022-09-26T09:09:15.908Z,345
2022-09-26T09:10:15.665Z,342
2022-09-26T09:11:16.384Z,333
2022-09-26T09:12:17.089Z,330
2022-09-26T09:13:15.753Z,338
2022-09-26T09:14:16.417Z,339
2022-09-26T09:15:29.635Z,352
2022-09-26T09:16:15.804Z,351
2022-09-26T09:17:16.525Z,347
2022-09-26T09:18:18.581Z,355
2022-09-26T09:19:15.789Z,352
2022-09-26T09:20:16.449Z,353
2022-09-26T09:21:16.565Z,336
2022-09-26T09:22:16.216Z,362
2022-09-26T09:23:16.228Z,345
2022-09-26T09:24:15.717Z,338
2022-09-26T09:25:16.320Z,334
2022-09-26T09:27:52.954Z,338
2022-09-26T09:28:16.763Z,343
2022-09-26T09:29:19.256Z,342
2022-09-26T09:30:21.721Z,339
2022-09-26T09:31:16.716Z,335
2022-09-26T09:32:16.190Z,337
2022-09-26T09:33:16.040Z,344
2022-09-26T09:34:15.840Z,343
2022-09-26T09:36:16.018Z,344
2022-09-26T09:39:14.885Z,346
2022-09-26T09:40:16.540Z,336
2022-09-26T09:41:15.962Z,337
2022-09-26T09:42:15.880Z,333
2022-09-26T09:43:16.645Z,330
2022-09-26T09:44:15.037Z,329
2022-09-26T09:45:15.457Z,335
2022-09-26T09:46:16.187Z,348
2022-09-26T09:47:16.096Z,350
2022-09-26T09:48:15.814Z,337
2022-09-26T09:49:16.173Z,335
2022-09-26T09:50:16.026Z,328
2022-09-26T09:51:16.502Z,331
2022-09-26T09:52:15.325Z,342
2022-09-26T09:53:16.105Z,346
2022-09-26T09:54:14.810Z,349
2022-09-26T09:55:16.979Z,330
2022-09-26T09:56:16.394Z,321
2022-09-26T09:57:16.069Z,332
2022-09-26T09:58:16.473Z,337
2022-09-26T09:59:16.409Z,339
2022-09-26T10:00:16.014Z,336
2022-09-26T10:01:16.766Z,339
2022-09-26T10:02:15.511Z,341
2022-09-26T10:03:15.722Z,333
2022-09-26T10:04:15.373Z,332
2022-09-26T10:05:16.203Z,334
2022-09-26T10:06:50.203Z,335
2022-09-26T10:07:16.632Z,331
2022-09-26T10:08:16.146Z,326
2022-09-26T10:09:42.810Z,328
2022-09-26T10:10:16.442Z,342
2022-09-26T10:11:15.993Z,348
2022-09-26T10:12:15.387Z,352
2022-09-26T10:13:16.474Z,351
2022-09-26T10:14:20.383Z,337
2022-09-26T10:15:15.571Z,336
2022-09-26T10:16:15.908Z,342
2022-09-26T10:17:16.205Z,346
2022-09-26T10:18:29.379Z,341
2022-09-26T10:19:21.379Z,329
2022-09-26T10:20:16.075Z,344
2022-09-26T10:21:16.495Z,330
2022-09-26T10:22:16.394Z,339
2022-09-26T10:23:16.244Z,337
2022-09-26T10:24:21.508Z,340
2022-09-26T10:25:16.001Z,327
2022-09-26T10:26:20.756Z,332
2022-09-26T10:27:21.299Z,330
2022-09-26T10:28:20.745Z,337
2022-09-26T10:29:20.725Z,326
2022-09-26T10:30:21.746Z,332
2022-09-26T10:31:15.854Z,338
2022-09-26T10:32:16.369Z,336
2022-09-26T10:33:16.377Z,338
2022-09-26T10:34:15.951Z,340
2022-09-26T10:35:19.538Z,337
2022-09-26T10:36:16.031Z,338
2022-09-26T10:37:15.958Z,332
2022-09-26T10:38:16.493Z,327
2022-09-26T10:39:16.175Z,368
2022-09-26T10:40:15.565Z,337
2022-09-26T10:41:16.677Z,330
2022-09-26T10:44:15.722Z,335
2022-09-26T10:45:16.047Z,340
2022-09-26T10:46:17.005Z,341
2022-09-26T10:47:16.054Z,331
2022-09-26T10:48:15.950Z,334
2022-09-26T10:49:15.791Z,341
2022-09-26T10:50:16.030Z,342
2022-09-26T10:51:15.622Z,334
2022-09-26T10:53:16.193Z,347
2022-09-26T10:54:16.188Z,346
2022-09-26T10:55:16.393Z,338
2022-09-26T10:56:16.159Z,334
2022-09-26T10:57:15.857Z,327
2022-09-26T10:58:18.811Z,329
2022-09-26T11:00:15.710Z,336
2022-09-26T11:01:16.339Z,338
2022-09-26T11:02:16.179Z,331
2022-09-26T11:03:15.604Z,332
2022-09-26T11:04:15.734Z,345
2022-09-26T11:05:15.966Z,346
2022-09-26T11:06:20.522Z,339
2022-09-26T11:07:15.994Z,348
2022-09-26T11:09:16.863Z,339
2022-09-26T11:10:16.352Z,330
2022-09-26T11:11:15.747Z,323
2022-09-26T11:12:16.508Z,328
2022-09-26T11:13:16.007Z,333
2022-09-26T11:14:15.513Z,337
2022-09-26T11:15:16.445Z,331
2022-09-26T11:16:15.421Z,333
2022-09-26T11:17:16.689Z,342
2022-09-26T11:18:16.399Z,314
2022-09-26T11:19:16.332Z,313
2022-09-26T11:20:16.506Z,325
2022-09-26T11:21:31.787Z,336
2022-09-26T11:22:15.279Z,325
2022-09-26T11:23:16.736Z,332
2022-09-26T11:26:25.157Z,331
2022-09-26T11:26:31.314Z,334
2022-09-26T11:33:50.443Z,341
2022-09-26T11:33:57.922Z,337
2022-09-26T11:34:04.976Z,340
2022-09-26T11:34:12.181Z,335
2022-09-26T11:34:32.725Z,347
2022-09-26T11:35:16.434Z,343
2022-09-26T11:36:16.305Z,325
2022-09-26T11:37:16.037Z,358
2022-09-26T11:38:16.561Z,337
2022-09-26T11:40:15.553Z,335
2022-09-26T11:41:16.285Z,338
2022-09-26T11:42:15.974Z,344
2022-09-26T11:43:15.923Z,351
2022-09-26T11:44:16.293Z,337
2022-09-26T11:45:15.748Z,323
2022-09-26T11:46:16.330Z,338
2022-09-26T11:47:15.964Z,333
2022-09-26T11:48:15.693Z,326
2022-09-26T11:49:16.111Z,341
2022-09-26T11:50:15.895Z,337
2022-09-26T11:52:16.340Z,334
2022-09-26T11:53:15.890Z,347
2022-09-26T11:54:16.432Z,346
2022-09-26T11:55:16.187Z,318
2022-09-26T11:56:15.819Z,361
2022-09-26T11:57:16.352Z,330
2022-09-26T11:58:16.195Z,325
2022-09-26T11:59:16.703Z,321
2022-09-26T12:00:16.279Z,333
2022-09-26T12:01:16.011Z,338
2022-09-26T12:02:17.032Z,337
2022-09-26T12:03:16.527Z,342
2022-09-26T12:04:16.470Z,333
2022-09-26T12:05:16.931Z,328
2022-09-26T12:06:16.520Z,335
2022-09-26T12:07:16.300Z,332
2022-09-26T12:08:16.569Z,331
2022-09-26T12:09:15.998Z,328
2022-09-26T12:10:16.125Z,334
2022-09-26T12:11:16.823Z,329
2022-09-26T12:12:16.210Z,341
2022-09-26T12:13:15.942Z,340
2022-09-26T12:14:16.450Z,331
2022-09-26T12:15:16.309Z,325
2022-09-26T12:16:16.059Z,335
2022-09-26T12:17:16.534Z,338
2022-09-26T12:18:16.370Z,337
2022-09-26T12:19:20.772Z,330
2022-09-26T12:20:16.257Z,340
2022-09-26T12:21:15.843Z,346
2022-09-26T12:22:16.850Z,323
2022-09-26T12:23:16.010Z,329
2022-09-26T12:24:15.988Z,339
2022-09-26T12:25:20.177Z,342
2022-09-26T12:26:16.237Z,341
2022-09-26T12:27:15.769Z,342
2022-09-26T12:28:16.370Z,339
2022-09-26T12:29:15.747Z,338
2022-09-26T12:30:15.667Z,336
2022-09-26T12:31:21.319Z,342
2022-09-26T12:32:15.759Z,346
2022-09-26T12:33:16.546Z,347
2022-09-26T12:34:16.394Z,357
2022-09-26T12:35:15.801Z,329
2022-09-26T12:36:16.612Z,337
2022-09-26T12:37:15.976Z,351
2022-09-26T12:38:15.748Z,336
2022-09-26T12:39:16.335Z,332
2022-09-26T12:40:15.872Z,325
2022-09-26T12:41:15.797Z,336
2022-09-26T12:42:16.296Z,331
2022-09-26T12:43:15.545Z,323
2022-09-26T12:44:16.621Z,330
2022-09-26T12:45:16.350Z,341
2022-09-26T12:46:16.140Z,351
2022-09-26T12:47:16.720Z,355
2022-09-26T12:48:16.117Z,338
2022-09-26T12:49:15.618Z,342
2022-09-26T12:50:16.462Z,344
2022-09-26T12:51:15.893Z,340
2022-09-26T12:52:16.109Z,339
2022-09-26T12:53:16.630Z,349
2022-09-26T12:54:15.901Z,348
2022-09-26T12:55:16.620Z,347
2022-09-26T12:56:16.643Z,337
2022-09-26T12:57:16.185Z,342
2022-09-26T12:58:16.836Z,339
2022-09-26T12:59:16.271Z,342
2022-09-26T13:00:15.707Z,343
2022-09-26T13:01:16.826Z,331
2022-09-26T13:02:16.701Z,333
2022-09-26T13:03:16.253Z,336
2022-09-26T13:04:16.393Z,326
2022-09-26T13:05:16.172Z,329
2022-09-26T13:06:21.155Z,335
2022-09-26T13:07:24.481Z,339
2022-09-26T13:08:16.383Z,331
2022-09-26T13:09:15.231Z,327
2022-09-26T13:10:16.211Z,334
2022-09-26T13:11:16.376Z,338
2022-09-26T13:12:16.005Z,344
2022-09-26T13:14:16.138Z,346
2022-09-26T13:15:15.868Z,342
2022-09-26T13:16:16.623Z,335
2022-09-26T13:18:16.015Z,332
2022-09-26T13:19:15.789Z,343
2022-09-26T13:20:16.376Z,348
2022-09-26T13:21:15.908Z,337
2022-09-26T13:22:16.224Z,334
2022-09-26T13:23:16.269Z,328
2022-09-26T13:24:15.823Z,339
2022-09-26T13:25:16.344Z,341
2022-09-26T13:26:16.266Z,338
2022-09-26T13:27:15.682Z,342
2022-09-26T13:28:16.742Z,341
2022-09-26T13:29:21.782Z,328
2022-09-26T13:30:15.846Z,327
2022-09-26T13:31:16.461Z,333
2022-09-26T13:32:16.529Z,312
2022-09-26T13:33:16.574Z,324
2022-09-26T13:34:16.178Z,335
2022-09-26T13:35:16.023Z,339
2022-09-26T13:36:16.426Z,331
2022-09-26T13:37:16.497Z,342
2022-09-26T13:38:15.625Z,344
2022-09-26T13:39:16.716Z,336
2022-09-26T13:40:16.194Z,342
2022-09-26T13:41:16.162Z,334
2022-09-26T13:42:16.558Z,340
2022-09-26T13:43:20.370Z,343
2022-09-26T13:44:15.778Z,350
2022-09-26T13:45:16.386Z,340
2022-09-26T13:46:16.267Z,330
2022-09-26T13:47:16.000Z,322
2022-09-26T13:48:16.453Z,329
2022-09-26T13:49:15.995Z,330
2022-09-26T13:50:15.783Z,328
2022-09-26T13:51:16.471Z,331
2022-09-26T13:53:15.862Z,333
2022-09-26T13:54:16.301Z,328
2022-09-26T13:56:15.702Z,336
2022-09-26T13:57:16.440Z,335
2022-09-26T13:58:15.944Z,334
2022-09-26T13:59:16.034Z,341
2022-09-26T14:00:16.339Z,343
2022-09-26T14:01:16.044Z,341
2022-09-26T14:02:16.623Z,351
2022-09-26T14:03:16.774Z,343
2022-09-26T14:04:16.056Z,337
2022-09-26T14:06:16.594Z,342
2022-09-26T14:07:15.847Z,343
2022-09-26T14:08:16.571Z,344
2022-09-26T14:09:16.198Z,348
2022-09-26T14:10:15.943Z,321
2022-09-26T14:11:16.607Z,354
2022-09-26T14:12:16.073Z,345
2022-09-26T14:13:15.745Z,339
2022-09-26T14:14:15.688Z,337
2022-09-26T14:15:16.213Z,330
2022-09-26T14:16:16.624Z,320
2022-09-26T14:17:20.080Z,333
2022-09-26T14:18:16.684Z,340
2022-09-26T14:19:16.228Z,336
2022-09-26T14:21:16.717Z,340
2022-09-26T14:22:16.112Z,332
2022-09-26T14:23:15.920Z,323
2022-09-26T14:24:16.847Z,325
2022-09-26T14:25:16.244Z,336
2022-09-26T14:26:15.652Z,330
2022-09-26T14:27:17.022Z,331
2022-09-26T14:29:16.154Z,336
2022-09-26T14:30:16.436Z,331
2022-09-26T14:31:16.458Z,330
2022-09-26T14:32:20.892Z,336
2022-09-26T14:33:16.409Z,328
2022-09-26T14:34:16.289Z,330
2022-09-26T14:35:15.604Z,332
2022-09-26T14:36:16.376Z,327
2022-09-26T14:37:15.729Z,328
2022-09-26T14:38:15.672Z,341
2022-09-26T14:39:18.323Z,336
2022-09-26T14:40:16.092Z,344
2022-09-26T14:41:16.262Z,343
2022-09-26T14:42:16.514Z,340
2022-09-26T14:43:15.596Z,346
2022-09-26T14:44:15.532Z,341
2022-09-26T14:45:16.294Z,336
2022-09-26T14:46:16.321Z,353
2022-09-26T14:47:15.919Z,349
2022-09-26T14:48:15.974Z,341
2022-09-26T14:49:15.297Z,330
2022-09-26T14:50:15.356Z,339